sensor_id;sensor_type;location;lat;lon;timestamp;P1;durP1;ratioP1;P2;durP2;ratioP2
64932;SDS011;51446;53.850;10.662;2023-07-29T00:02:16;2.30;;;2.10;;
64932;SDS011;51446;53.850;10.662;2023-07-29T00:04:41;2.72;;;2.40;;
64932;SDS011;51446;53.850;10.662;2023-07-29T00:07:06;3.83;;;2.27;;
64932;SDS011;51446;53.850;10.662;2023-07-29T00:09:32;3.43;;;2.60;;
64932;SDS011;51446;53.850;10.662;2023-07-29T00:11:57;2.90;;;2.50;;
64932;SDS011;51446;53.850;10.662;2023-07-29T00:14:22;3.30;;;2.60;;
64932;SDS011;51446;53.850;10.662;2023-07-29T00:16:47;3.40;;;2.87;;
64932;SDS011;51446;53.850;10.662;2023-07-29T00:19:13;4.83;;;2.67;;
64932;SDS011;51446;53.850;10.662;2023-07-29T00:21:38;3.87;;;2.93;;
64932;SDS011;51446;53.850;10.662;2023-07-29T00:24:03;3.73;;;2.60;;
64932;SDS011;51446;53.850;10.662;2023-07-29T00:26:29;3.33;;;2.50;;
64932;SDS011;51446;53.850;10.662;2023-07-29T00:28:57;3.30;;;2.50;;
64932;SDS011;51446;53.850;10.662;2023-07-29T00:31:22;3.30;;;2.20;;
64932;SDS011;51446;53.850;10.662;2023-07-29T00:33:48;3.53;;;2.50;;
64932;SDS011;51446;53.850;10.662;2023-07-29T00:36:13;6.93;;;2.30;;
64932;SDS011;51446;53.850;10.662;2023-07-29T00:38:38;3.67;;;2.60;;
64932;SDS011;51446;53.850;10.662;2023-07-29T00:41:03;5.03;;;2.53;;
64932;SDS011;51446;53.850;10.662;2023-07-29T00:43:30;3.42;;;2.65;;
64932;SDS011;51446;53.850;10.662;2023-07-29T00:45:55;4.87;;;2.63;;
64932;SDS011;51446;53.850;10.662;2023-07-29T00:48:22;3.50;;;3.20;;
64932;SDS011;51446;53.850;10.662;2023-07-29T00:50:48;3.95;;;2.80;;
64932;SDS011;51446;53.850;10.662;2023-07-29T00:53:14;2.90;;;2.60;;
64932;SDS011;51446;53.850;10.662;2023-07-29T00:55:39;3.03;;;2.70;;
64932;SDS011;51446;53.850;10.662;2023-07-29T00:58:05;2.80;;;2.30;;
64932;SDS011;51446;53.850;10.662;2023-07-29T01:00:31;7.18;;;3.00;;
64932;SDS011;51446;53.850;10.662;2023-07-29T01:02:57;3.33;;;3.03;;
64932;SDS011;51446;53.850;10.662;2023-07-29T01:05:22;3.63;;;2.83;;
64932;SDS011;51446;53.850;10.662;2023-07-29T01:08:13;3.33;;;2.87;;
64932;SDS011;51446;53.850;10.662;2023-07-29T01:10:49;3.65;;;2.60;;
64932;SDS011;51446;53.850;10.662;2023-07-29T01:15:54;6.60;;;3.17;;
64932;SDS011;51446;53.850;10.662;2023-07-29T01:18:25;3.08;;;2.50;;
64932;SDS011;51446;53.850;10.662;2023-07-29T01:20:55;4.68;;;3.33;;
64932;SDS011;51446;53.850;10.662;2023-07-29T01:23:29;5.80;;;3.27;;
64932;SDS011;51446;53.850;10.662;2023-07-29T01:25:58;5.32;;;3.40;;
64932;SDS011;51446;53.850;10.662;2023-07-29T01:28:24;5.70;;;3.50;;
64932;SDS011;51446;53.850;10.662;2023-07-29T01:30:51;3.63;;;3.13;;
64932;SDS011;51446;53.850;10.662;2023-07-29T01:33:25;4.68;;;3.40;;
64932;SDS011;51446;53.850;10.662;2023-07-29T01:35:54;4.32;;;3.20;;
64932;SDS011;51446;53.850;10.662;2023-07-29T01:38:30;6.00;;;3.30;;
64932;SDS011;51446;53.850;10.662;2023-07-29T01:41:02;3.28;;;2.92;;
64932;SDS011;51446;53.850;10.662;2023-07-29T01:43:29;4.07;;;2.87;;
64932;SDS011;51446;53.850;10.662;2023-07-29T01:45:55;3.83;;;3.22;;
64932;SDS011;51446;53.850;10.662;2023-07-29T01:48:20;4.77;;;2.90;;
64932;SDS011;51446;53.850;10.662;2023-07-29T01:50:46;6.67;;;3.00;;
64932;SDS011;51446;53.850;10.662;2023-07-29T01:53:11;3.33;;;2.80;;
64932;SDS011;51446;53.850;10.662;2023-07-29T01:55:36;2.67;;;2.42;;
64932;SDS011;51446;53.850;10.662;2023-07-29T01:58:01;3.57;;;2.80;;
64932;SDS011;51446;53.850;10.662;2023-07-29T02:00:27;6.43;;;2.97;;
64932;SDS011;51446;53.850;10.662;2023-07-29T02:02:52;5.30;;;2.63;;
64932;SDS011;51446;53.850;10.662;2023-07-29T02:05:17;3.83;;;2.77;;
64932;SDS011;51446;53.850;10.662;2023-07-29T02:07:43;4.53;;;2.50;;
64932;SDS011;51446;53.850;10.662;2023-07-29T02:10:08;4.60;;;2.30;;
64932;SDS011;51446;53.850;10.662;2023-07-29T02:12:33;12.83;;;3.50;;
64932;SDS011;51446;53.850;10.662;2023-07-29T02:14:59;5.32;;;3.40;;
64932;SDS011;51446;53.850;10.662;2023-07-29T02:17:24;4.20;;;3.27;;
64932;SDS011;51446;53.850;10.662;2023-07-29T02:19:51;4.63;;;3.00;;
64932;SDS011;51446;53.850;10.662;2023-07-29T02:22:16;4.38;;;3.50;;
64932;SDS011;51446;53.850;10.662;2023-07-29T02:24:42;4.50;;;3.47;;
64932;SDS011;51446;53.850;10.662;2023-07-29T02:27:08;4.00;;;3.33;;
64932;SDS011;51446;53.850;10.662;2023-07-29T02:29:33;3.70;;;3.07;;
64932;SDS011;51446;53.850;10.662;2023-07-29T02:31:59;3.47;;;2.90;;
64932;SDS011;51446;53.850;10.662;2023-07-29T02:34:25;3.30;;;2.97;;
64932;SDS011;51446;53.850;10.662;2023-07-29T02:36:50;2.97;;;2.63;;
64932;SDS011;51446;53.850;10.662;2023-07-29T02:39:15;4.03;;;3.50;;
64932;SDS011;51446;53.850;10.662;2023-07-29T02:41:41;3.20;;;2.90;;
64932;SDS011;51446;53.850;10.662;2023-07-29T02:44:06;4.93;;;3.10;;
64932;SDS011;51446;53.850;10.662;2023-07-29T02:46:31;4.20;;;2.77;;
64932;SDS011;51446;53.850;10.662;2023-07-29T02:48:57;4.67;;;2.70;;
64932;SDS011;51446;53.850;10.662;2023-07-29T02:51:22;3.13;;;2.80;;
64932;SDS011;51446;53.850;10.662;2023-07-29T02:53:47;5.07;;;3.10;;
64932;SDS011;51446;53.850;10.662;2023-07-29T02:56:13;3.97;;;2.60;;
64932;SDS011;51446;53.850;10.662;2023-07-29T02:58:38;3.37;;;3.07;;
64932;SDS011;51446;53.850;10.662;2023-07-29T03:01:04;3.70;;;3.40;;
64932;SDS011;51446;53.850;10.662;2023-07-29T03:03:31;4.65;;;3.20;;
64932;SDS011;51446;53.850;10.662;2023-07-29T03:05:58;3.35;;;3.05;;
64932;SDS011;51446;53.850;10.662;2023-07-29T03:08:27;3.90;;;3.05;;
64932;SDS011;51446;53.850;10.662;2023-07-29T03:10:53;3.80;;;3.33;;
64932;SDS011;51446;53.850;10.662;2023-07-29T03:13:19;5.07;;;3.37;;
64932;SDS011;51446;53.850;10.662;2023-07-29T03:15:44;5.78;;;3.70;;
64932;SDS011;51446;53.850;10.662;2023-07-29T03:18:10;4.63;;;3.63;;
64932;SDS011;51446;53.850;10.662;2023-07-29T03:20:35;5.67;;;3.77;;
64932;SDS011;51446;53.850;10.662;2023-07-29T03:23:00;6.13;;;4.00;;
64932;SDS011;51446;53.850;10.662;2023-07-29T03:25:26;4.67;;;3.90;;
64932;SDS011;51446;53.850;10.662;2023-07-29T03:27:51;8.20;;;3.80;;
64932;SDS011;51446;53.850;10.662;2023-07-29T03:30:20;8.03;;;3.70;;
64932;SDS011;51446;53.850;10.662;2023-07-29T03:32:46;4.67;;;3.80;;
64932;SDS011;51446;53.850;10.662;2023-07-29T03:35:12;5.28;;;4.25;;
64932;SDS011;51446;53.850;10.662;2023-07-29T03:37:37;10.83;;;4.10;;
64932;SDS011;51446;53.850;10.662;2023-07-29T03:40:03;6.03;;;4.73;;
64932;SDS011;51446;53.850;10.662;2023-07-29T03:42:29;6.40;;;4.47;;
64932;SDS011;51446;53.850;10.662;2023-07-29T03:44:54;5.00;;;4.07;;
64932;SDS011;51446;53.850;10.662;2023-07-29T03:47:19;6.03;;;4.63;;
64932;SDS011;51446;53.850;10.662;2023-07-29T03:49:45;5.93;;;4.70;;
64932;SDS011;51446;53.850;10.662;2023-07-29T03:52:10;6.57;;;5.00;;
64932;SDS011;51446;53.850;10.662;2023-07-29T03:54:35;6.47;;;4.83;;
64932;SDS011;51446;53.850;10.662;2023-07-29T03:57:01;5.37;;;4.47;;
64932;SDS011;51446;53.850;10.662;2023-07-29T03:59:26;9.97;;;4.90;;
64932;SDS011;51446;53.850;10.662;2023-07-29T04:01:51;5.57;;;3.90;;
64932;SDS011;51446;53.850;10.662;2023-07-29T04:04:16;6.53;;;4.70;;
64932;SDS011;51446;53.850;10.662;2023-07-29T04:06:42;5.57;;;4.30;;
64932;SDS011;51446;53.850;10.662;2023-07-29T04:09:07;6.90;;;4.73;;
64932;SDS011;51446;53.850;10.662;2023-07-29T04:11:33;5.30;;;4.43;;
64932;SDS011;51446;53.850;10.662;2023-07-29T04:13:58;5.33;;;3.60;;
64932;SDS011;51446;53.850;10.662;2023-07-29T04:16:24;7.80;;;4.50;;
64932;SDS011;51446;53.850;10.662;2023-07-29T04:18:49;5.27;;;4.57;;
64932;SDS011;51446;53.850;10.662;2023-07-29T04:21:14;5.43;;;4.87;;
64932;SDS011;51446;53.850;10.662;2023-07-29T04:23:39;6.00;;;4.40;;
64932;SDS011;51446;53.850;10.662;2023-07-29T04:26:05;7.60;;;5.65;;
64932;SDS011;51446;53.850;10.662;2023-07-29T04:28:30;6.43;;;5.30;;
64932;SDS011;51446;53.850;10.662;2023-07-29T04:30:56;6.57;;;5.60;;
64932;SDS011;51446;53.850;10.662;2023-07-29T04:33:21;6.63;;;5.67;;
64932;SDS011;51446;53.850;10.662;2023-07-29T04:35:46;7.33;;;5.30;;
64932;SDS011;51446;53.850;10.662;2023-07-29T04:38:12;6.50;;;5.67;;
64932;SDS011;51446;53.850;10.662;2023-07-29T04:40:37;6.47;;;4.97;;
64932;SDS011;51446;53.850;10.662;2023-07-29T04:43:02;6.83;;;5.17;;
64932;SDS011;51446;53.850;10.662;2023-07-29T04:45:28;6.10;;;5.50;;
64932;SDS011;51446;53.850;10.662;2023-07-29T04:47:54;7.73;;;5.00;;
64932;SDS011;51446;53.850;10.662;2023-07-29T04:50:19;7.75;;;5.30;;
64932;SDS011;51446;53.850;10.662;2023-07-29T04:52:45;6.30;;;5.70;;
64932;SDS011;51446;53.850;10.662;2023-07-29T04:55:10;7.00;;;5.67;;
64932;SDS011;51446;53.850;10.662;2023-07-29T04:57:35;7.17;;;5.70;;
64932;SDS011;51446;53.850;10.662;2023-07-29T05:00:01;7.37;;;5.30;;
64932;SDS011;51446;53.850;10.662;2023-07-29T05:02:27;7.00;;;5.43;;
64932;SDS011;51446;53.850;10.662;2023-07-29T05:04:53;6.33;;;5.70;;
64932;SDS011;51446;53.850;10.662;2023-07-29T05:07:18;10.90;;;5.70;;
64932;SDS011;51446;53.850;10.662;2023-07-29T05:09:43;8.43;;;6.57;;
64932;SDS011;51446;53.850;10.662;2023-07-29T05:12:09;6.97;;;6.00;;
64932;SDS011;51446;53.850;10.662;2023-07-29T05:14:34;8.00;;;6.57;;
64932;SDS011;51446;53.850;10.662;2023-07-29T05:16:59;8.67;;;6.67;;
64932;SDS011;51446;53.850;10.662;2023-07-29T05:19:25;7.67;;;6.83;;
64932;SDS011;51446;53.850;10.662;2023-07-29T05:21:51;7.88;;;6.18;;
64932;SDS011;51446;53.850;10.662;2023-07-29T05:24:16;9.30;;;7.10;;
64932;SDS011;51446;53.850;10.662;2023-07-29T05:26:42;9.77;;;7.43;;
64932;SDS011;51446;53.850;10.662;2023-07-29T05:29:07;12.17;;;8.47;;
64932;SDS011;51446;53.850;10.662;2023-07-29T05:31:32;11.77;;;8.67;;
64932;SDS011;51446;53.850;10.662;2023-07-29T05:33:58;10.07;;;8.57;;
64932;SDS011;51446;53.850;10.662;2023-07-29T05:36:24;12.95;;;8.90;;
64932;SDS011;51446;53.850;10.662;2023-07-29T05:38:49;11.97;;;9.57;;
64932;SDS011;51446;53.850;10.662;2023-07-29T05:41:15;11.45;;;8.60;;
64932;SDS011;51446;53.850;10.662;2023-07-29T05:43:40;14.27;;;9.57;;
64932;SDS011;51446;53.850;10.662;2023-07-29T05:46:08;12.52;;;9.52;;
64932;SDS011;51446;53.850;10.662;2023-07-29T05:48:33;14.03;;;10.57;;
64932;SDS011;51446;53.850;10.662;2023-07-29T05:50:58;15.43;;;10.47;;
64932;SDS011;51446;53.850;10.662;2023-07-29T05:53:24;17.00;;;11.53;;
64932;SDS011;51446;53.850;10.662;2023-07-29T05:55:49;12.90;;;9.90;;
64932;SDS011;51446;53.850;10.662;2023-07-29T05:58:14;16.17;;;11.32;;
64932;SDS011;51446;53.850;10.662;2023-07-29T06:00:40;16.60;;;12.20;;
64932;SDS011;51446;53.850;10.662;2023-07-29T06:03:05;17.83;;;12.87;;
64932;SDS011;51446;53.850;10.662;2023-07-29T06:05:30;21.10;;;13.77;;
64932;SDS011;51446;53.850;10.662;2023-07-29T06:07:56;20.80;;;14.90;;
64932;SDS011;51446;53.850;10.662;2023-07-29T06:10:21;28.20;;;16.30;;
64932;SDS011;51446;53.850;10.662;2023-07-29T06:12:47;21.90;;;15.32;;
64932;SDS011;51446;53.850;10.662;2023-07-29T06:15:12;21.73;;;13.90;;
64932;SDS011;51446;53.850;10.662;2023-07-29T06:17:38;21.33;;;14.73;;
64932;SDS011;51446;53.850;10.662;2023-07-29T06:20:04;19.63;;;13.82;;
64932;SDS011;51446;53.850;10.662;2023-07-29T06:22:31;22.00;;;14.67;;
64932;SDS011;51446;53.850;10.662;2023-07-29T06:24:56;20.35;;;14.35;;
64932;SDS011;51446;53.850;10.662;2023-07-29T06:27:21;19.70;;;14.73;;
64932;SDS011;51446;53.850;10.662;2023-07-29T06:29:47;21.97;;;14.63;;
64932;SDS011;51446;53.850;10.662;2023-07-29T06:32:12;23.00;;;15.73;;
64932;SDS011;51446;53.850;10.662;2023-07-29T06:34:37;22.40;;;15.60;;
64932;SDS011;51446;53.850;10.662;2023-07-29T06:37:02;21.33;;;14.93;;
64932;SDS011;51446;53.850;10.662;2023-07-29T06:39:28;22.58;;;16.33;;
64932;SDS011;51446;53.850;10.662;2023-07-29T06:41:53;19.13;;;13.77;;
64932;SDS011;51446;53.850;10.662;2023-07-29T06:44:19;16.77;;;12.17;;
64932;SDS011;51446;53.850;10.662;2023-07-29T06:46:44;18.07;;;13.20;;
64932;SDS011;51446;53.850;10.662;2023-07-29T06:49:10;17.50;;;11.93;;
64932;SDS011;51446;53.850;10.662;2023-07-29T06:51:35;18.27;;;12.43;;
64932;SDS011;51446;53.850;10.662;2023-07-29T06:54:01;18.57;;;12.73;;
64932;SDS011;51446;53.850;10.662;2023-07-29T06:56:27;20.55;;;12.65;;
64932;SDS011;51446;53.850;10.662;2023-07-29T06:58:52;18.80;;;13.07;;
64932;SDS011;51446;53.850;10.662;2023-07-29T07:01:18;16.03;;;11.83;;
64932;SDS011;51446;53.850;10.662;2023-07-29T07:03:43;14.48;;;11.57;;
64932;SDS011;51446;53.850;10.662;2023-07-29T07:06:08;16.07;;;11.73;;
64932;SDS011;51446;53.850;10.662;2023-07-29T07:08:34;13.83;;;11.13;;
64932;SDS011;51446;53.850;10.662;2023-07-29T07:10:59;18.33;;;13.10;;
64932;SDS011;51446;53.850;10.662;2023-07-29T07:13:24;18.97;;;13.70;;
64932;SDS011;51446;53.850;10.662;2023-07-29T07:15:50;20.77;;;13.47;;
64932;SDS011;51446;53.850;10.662;2023-07-29T07:18:15;17.60;;;13.57;;
64932;SDS011;51446;53.850;10.662;2023-07-29T07:20:40;16.03;;;13.70;;
64932;SDS011;51446;53.850;10.662;2023-07-29T07:23:05;15.93;;;12.70;;
64932;SDS011;51446;53.850;10.662;2023-07-29T07:25:33;19.63;;;13.88;;
64932;SDS011;51446;53.850;10.662;2023-07-29T07:27:59;15.63;;;12.47;;
64932;SDS011;51446;53.850;10.662;2023-07-29T07:30:24;17.77;;;13.60;;
64932;SDS011;51446;53.850;10.662;2023-07-29T07:32:49;22.13;;;13.73;;
64932;SDS011;51446;53.850;10.662;2023-07-29T07:35:15;16.47;;;13.07;;
64932;SDS011;51446;53.850;10.662;2023-07-29T07:37:41;15.95;;;12.98;;
64932;SDS011;51446;53.850;10.662;2023-07-29T07:40:06;20.87;;;13.73;;
64932;SDS011;51446;53.850;10.662;2023-07-29T07:42:32;15.50;;;12.73;;
64932;SDS011;51446;53.850;10.662;2023-07-29T07:44:57;17.40;;;12.53;;
64932;SDS011;51446;53.850;10.662;2023-07-29T07:47:23;17.40;;;13.33;;
64932;SDS011;51446;53.850;10.662;2023-07-29T07:49:48;18.67;;;14.90;;
64932;SDS011;51446;53.850;10.662;2023-07-29T07:52:15;20.38;;;15.50;;
64932;SDS011;51446;53.850;10.662;2023-07-29T07:54:40;20.50;;;16.10;;
64932;SDS011;51446;53.850;10.662;2023-07-29T07:57:06;19.50;;;14.87;;
64932;SDS011;51446;53.850;10.662;2023-07-29T07:59:31;19.83;;;15.00;;
64932;SDS011;51446;53.850;10.662;2023-07-29T08:01:56;19.80;;;15.70;;
64932;SDS011;51446;53.850;10.662;2023-07-29T08:04:21;19.67;;;15.23;;
64932;SDS011;51446;53.850;10.662;2023-07-29T08:06:47;22.03;;;15.77;;
64932;SDS011;51446;53.850;10.662;2023-07-29T08:09:12;20.77;;;15.45;;
64932;SDS011;51446;53.850;10.662;2023-07-29T08:11:37;22.27;;;15.67;;
64932;SDS011;51446;53.850;10.662;2023-07-29T08:14:03;21.10;;;16.53;;
64932;SDS011;51446;53.850;10.662;2023-07-29T08:16:28;19.43;;;15.20;;
64932;SDS011;51446;53.850;10.662;2023-07-29T08:18:53;23.70;;;17.90;;
64932;SDS011;51446;53.850;10.662;2023-07-29T08:21:18;20.87;;;16.60;;
64932;SDS011;51446;53.850;10.662;2023-07-29T08:23:44;23.33;;;16.90;;
64932;SDS011;51446;53.850;10.662;2023-07-29T08:26:09;22.33;;;16.43;;
64932;SDS011;51446;53.850;10.662;2023-07-29T08:28:36;25.95;;;17.38;;
64932;SDS011;51446;53.850;10.662;2023-07-29T08:31:03;20.52;;;16.17;;
64932;SDS011;51446;53.850;10.662;2023-07-29T08:33:30;21.43;;;16.30;;
64932;SDS011;51446;53.850;10.662;2023-07-29T08:36:01;18.00;;;14.88;;
64932;SDS011;51446;53.850;10.662;2023-07-29T08:38:27;21.38;;;16.45;;
64932;SDS011;51446;53.850;10.662;2023-07-29T08:40:53;21.73;;;16.57;;
64932;SDS011;51446;53.850;10.662;2023-07-29T08:43:27;21.65;;;16.40;;
64932;SDS011;51446;53.850;10.662;2023-07-29T08:45:55;23.67;;;17.08;;
64932;SDS011;51446;53.850;10.662;2023-07-29T08:48:23;23.15;;;17.25;;
64932;SDS011;51446;53.850;10.662;2023-07-29T08:50:56;23.93;;;16.23;;
64932;SDS011;51446;53.850;10.662;2023-07-29T08:53:24;23.17;;;15.38;;
64932;SDS011;51446;53.850;10.662;2023-07-29T08:55:50;21.90;;;14.55;;
64932;SDS011;51446;53.850;10.662;2023-07-29T08:58:15;18.83;;;14.47;;
64932;SDS011;51446;53.850;10.662;2023-07-29T09:00:41;19.15;;;14.25;;
64932;SDS011;51446;53.850;10.662;2023-07-29T09:03:07;19.70;;;15.27;;
64932;SDS011;51446;53.850;10.662;2023-07-29T09:05:35;22.77;;;14.63;;
64932;SDS011;51446;53.850;10.662;2023-07-29T09:08:01;22.33;;;16.42;;
64932;SDS011;51446;53.850;10.662;2023-07-29T09:10:27;21.40;;;16.00;;
64932;SDS011;51446;53.850;10.662;2023-07-29T09:12:53;20.43;;;15.20;;
64932;SDS011;51446;53.850;10.662;2023-07-29T09:15:28;22.75;;;15.70;;
64932;SDS011;51446;53.850;10.662;2023-07-29T09:17:55;21.97;;;14.87;;
64932;SDS011;51446;53.850;10.662;2023-07-29T09:20:23;18.85;;;14.63;;
64932;SDS011;51446;53.850;10.662;2023-07-29T09:22:54;18.55;;;13.50;;
64932;SDS011;51446;53.850;10.662;2023-07-29T09:25:27;15.30;;;12.68;;
64932;SDS011;51446;53.850;10.662;2023-07-29T09:27:59;15.82;;;11.80;;
64932;SDS011;51446;53.850;10.662;2023-07-29T09:30:26;18.37;;;11.47;;
64932;SDS011;51446;53.850;10.662;2023-07-29T09:32:55;14.55;;;10.45;;
64932;SDS011;51446;53.850;10.662;2023-07-29T09:35:26;13.75;;;9.48;;
64932;SDS011;51446;53.850;10.662;2023-07-29T09:37:52;12.15;;;10.85;;
64932;SDS011;51446;53.850;10.662;2023-07-29T09:40:18;18.00;;;14.00;;
64932;SDS011;51446;53.850;10.662;2023-07-29T09:42:50;19.17;;;15.20;;
64932;SDS011;51446;53.850;10.662;2023-07-29T09:45:35;14.32;;;12.82;;
64932;SDS011;51446;53.850;10.662;2023-07-29T09:48:02;14.70;;;11.38;;
64932;SDS011;51446;53.850;10.662;2023-07-29T09:50:30;14.83;;;12.10;;
64932;SDS011;51446;53.850;10.662;2023-07-29T09:52:56;11.98;;;9.95;;
64932;SDS011;51446;53.850;10.662;2023-07-29T09:55:25;11.53;;;8.40;;
64932;SDS011;51446;53.850;10.662;2023-07-29T09:57:56;9.07;;;7.85;;
64932;SDS011;51446;53.850;10.662;2023-07-29T10:00:23;9.23;;;8.05;;
64932;SDS011;51446;53.850;10.662;2023-07-29T10:02:48;12.98;;;8.60;;
64932;SDS011;51446;53.850;10.662;2023-07-29T10:05:14;9.50;;;7.10;;
64932;SDS011;51446;53.850;10.662;2023-07-29T10:07:40;9.60;;;7.33;;
64932;SDS011;51446;53.850;10.662;2023-07-29T10:10:06;11.33;;;8.30;;
64932;SDS011;51446;53.850;10.662;2023-07-29T10:12:33;12.82;;;9.23;;
64932;SDS011;51446;53.850;10.662;2023-07-29T10:15:03;12.63;;;8.90;;
64932;SDS011;51446;53.850;10.662;2023-07-29T10:17:30;10.07;;;7.57;;
64932;SDS011;51446;53.850;10.662;2023-07-29T10:19:59;9.43;;;7.78;;
64932;SDS011;51446;53.850;10.662;2023-07-29T10:22:27;8.48;;;6.93;;
64932;SDS011;51446;53.850;10.662;2023-07-29T10:25:01;7.93;;;6.10;;
64932;SDS011;51446;53.850;10.662;2023-07-29T10:27:35;9.68;;;6.30;;
64932;SDS011;51446;53.850;10.662;2023-07-29T10:30:23;7.28;;;6.55;;
64932;SDS011;51446;53.850;10.662;2023-07-29T10:32:49;7.82;;;5.97;;
64932;SDS011;51446;53.850;10.662;2023-07-29T10:35:16;7.40;;;5.68;;
64932;SDS011;51446;53.850;10.662;2023-07-29T10:37:41;9.03;;;6.23;;
64932;SDS011;51446;53.850;10.662;2023-07-29T10:40:08;8.33;;;5.60;;
64932;SDS011;51446;53.850;10.662;2023-07-29T10:42:35;6.55;;;5.10;;
64932;SDS011;51446;53.850;10.662;2023-07-29T10:45:18;8.38;;;4.90;;
64932;SDS011;51446;53.850;10.662;2023-07-29T10:47:45;7.10;;;5.72;;
64932;SDS011;51446;53.850;10.662;2023-07-29T10:50:18;7.30;;;5.80;;
64932;SDS011;51446;53.850;10.662;2023-07-29T10:52:48;9.93;;;5.65;;
64932;SDS011;51446;53.850;10.662;2023-07-29T10:55:22;7.10;;;5.00;;
64932;SDS011;51446;53.850;10.662;2023-07-29T10:57:52;7.85;;;4.38;;
64932;SDS011;51446;53.850;10.662;2023-07-29T11:00:38;8.95;;;5.28;;
64932;SDS011;51446;53.850;10.662;2023-07-29T11:03:06;7.03;;;4.67;;
64932;SDS011;51446;53.850;10.662;2023-07-29T11:05:42;7.00;;;4.32;;
64932;SDS011;51446;53.850;10.662;2023-07-29T11:10:45;7.97;;;4.60;;
64932;SDS011;51446;53.850;10.662;2023-07-29T11:13:23;4.85;;;3.85;;
64932;SDS011;51446;53.850;10.662;2023-07-29T11:15:50;5.17;;;3.57;;
64932;SDS011;51446;53.850;10.662;2023-07-29T11:18:19;5.03;;;3.15;;
64932;SDS011;51446;53.850;10.662;2023-07-29T11:20:45;3.95;;;2.80;;
64932;SDS011;51446;53.850;10.662;2023-07-29T11:23:11;3.50;;;2.33;;
64932;SDS011;51446;53.850;10.662;2023-07-29T11:25:36;3.13;;;2.60;;
64932;SDS011;51446;53.850;10.662;2023-07-29T11:28:03;5.93;;;2.88;;
64932;SDS011;51446;53.850;10.662;2023-07-29T11:30:28;4.03;;;2.50;;
64932;SDS011;51446;53.850;10.662;2023-07-29T11:32:57;4.73;;;2.47;;
64932;SDS011;51446;53.850;10.662;2023-07-29T11:35:23;2.33;;;2.00;;
64932;SDS011;51446;53.850;10.662;2023-07-29T11:37:50;3.72;;;2.22;;
64932;SDS011;51446;53.850;10.662;2023-07-29T11:40:17;4.43;;;2.50;;
64932;SDS011;51446;53.850;10.662;2023-07-29T11:42:46;4.18;;;2.50;;
64932;SDS011;51446;53.850;10.662;2023-07-29T11:45:13;2.88;;;2.25;;
64932;SDS011;51446;53.850;10.662;2023-07-29T11:47:40;3.75;;;2.75;;
64932;SDS011;51446;53.850;10.662;2023-07-29T11:50:06;2.60;;;2.40;;
64932;SDS011;51446;53.850;10.662;2023-07-29T11:52:34;3.00;;;2.30;;
64932;SDS011;51446;53.850;10.662;2023-07-29T11:55:01;4.57;;;2.10;;
64932;SDS011;51446;53.850;10.662;2023-07-29T11:57:28;6.18;;;2.20;;
64932;SDS011;51446;53.850;10.662;2023-07-29T11:59:54;5.55;;;2.45;;
64932;SDS011;51446;53.850;10.662;2023-07-29T12:02:20;2.67;;;2.27;;
64932;SDS011;51446;53.850;10.662;2023-07-29T12:04:46;3.75;;;2.60;;
64932;SDS011;51446;53.850;10.662;2023-07-29T12:07:13;3.23;;;2.60;;
64932;SDS011;51446;53.850;10.662;2023-07-29T12:09:40;3.42;;;2.55;;
64932;SDS011;51446;53.850;10.662;2023-07-29T12:12:06;3.88;;;2.70;;
64932;SDS011;51446;53.850;10.662;2023-07-29T12:14:33;3.78;;;3.38;;
64932;SDS011;51446;53.850;10.662;2023-07-29T12:16:59;4.20;;;3.05;;
64932;SDS011;51446;53.850;10.662;2023-07-29T12:19:31;3.97;;;3.00;;
64932;SDS011;51446;53.850;10.662;2023-07-29T12:22:04;5.68;;;3.30;;
64932;SDS011;51446;53.850;10.662;2023-07-29T12:24:32;5.68;;;2.92;;
64932;SDS011;51446;53.850;10.662;2023-07-29T12:26:58;4.80;;;3.30;;
64932;SDS011;51446;53.850;10.662;2023-07-29T12:29:24;3.40;;;3.10;;
64932;SDS011;51446;53.850;10.662;2023-07-29T12:31:56;4.23;;;3.23;;
64932;SDS011;51446;53.850;10.662;2023-07-29T12:34:24;3.80;;;3.30;;
64932;SDS011;51446;53.850;10.662;2023-07-29T12:36:51;4.47;;;3.10;;
64932;SDS011;51446;53.850;10.662;2023-07-29T12:39:22;4.03;;;3.00;;
64932;SDS011;51446;53.850;10.662;2023-07-29T12:41:49;4.78;;;3.03;;
64932;SDS011;51446;53.850;10.662;2023-07-29T12:44:15;4.80;;;3.75;;
64932;SDS011;51446;53.850;10.662;2023-07-29T12:46:41;4.37;;;2.90;;
64932;SDS011;51446;53.850;10.662;2023-07-29T12:49:06;3.28;;;2.92;;
64932;SDS011;51446;53.850;10.662;2023-07-29T12:51:31;3.53;;;2.70;;
64932;SDS011;51446;53.850;10.662;2023-07-29T12:53:57;3.77;;;3.00;;
64932;SDS011;51446;53.850;10.662;2023-07-29T12:56:22;5.57;;;3.00;;
64932;SDS011;51446;53.850;10.662;2023-07-29T12:58:48;2.93;;;2.40;;
64932;SDS011;51446;53.850;10.662;2023-07-29T13:01:13;5.73;;;2.80;;
64932;SDS011;51446;53.850;10.662;2023-07-29T13:03:42;3.20;;;2.50;;
64932;SDS011;51446;53.850;10.662;2023-07-29T13:06:08;3.70;;;2.78;;
64932;SDS011;51446;53.850;10.662;2023-07-29T13:08:33;3.67;;;2.80;;
64932;SDS011;51446;53.850;10.662;2023-07-29T13:10:58;4.00;;;2.93;;
64932;SDS011;51446;53.850;10.662;2023-07-29T13:13:23;3.53;;;2.60;;
64932;SDS011;51446;53.850;10.662;2023-07-29T13:15:49;8.87;;;2.60;;
64932;SDS011;51446;53.850;10.662;2023-07-29T13:18:14;4.17;;;2.53;;
64932;SDS011;51446;53.850;10.662;2023-07-29T13:20:39;3.70;;;2.80;;
64932;SDS011;51446;53.850;10.662;2023-07-29T13:23:05;3.60;;;2.50;;
64932;SDS011;51446;53.850;10.662;2023-07-29T13:25:30;2.97;;;2.30;;
64932;SDS011;51446;53.850;10.662;2023-07-29T13:27:55;2.70;;;2.40;;
64932;SDS011;51446;53.850;10.662;2023-07-29T13:30:21;4.17;;;2.20;;
64932;SDS011;51446;53.850;10.662;2023-07-29T13:32:46;3.53;;;2.40;;
64932;SDS011;51446;53.850;10.662;2023-07-29T13:35:11;2.40;;;2.20;;
64932;SDS011;51446;53.850;10.662;2023-07-29T13:37:36;3.43;;;2.13;;
64932;SDS011;51446;53.850;10.662;2023-07-29T13:40:02;3.27;;;2.30;;
64932;SDS011;51446;53.850;10.662;2023-07-29T13:42:27;2.80;;;2.20;;
64932;SDS011;51446;53.850;10.662;2023-07-29T13:44:52;4.30;;;2.13;;
64932;SDS011;51446;53.850;10.662;2023-07-29T13:47:18;3.97;;;2.30;;
64932;SDS011;51446;53.850;10.662;2023-07-29T13:49:43;3.20;;;2.17;;
64932;SDS011;51446;53.850;10.662;2023-07-29T13:52:08;3.07;;;2.07;;
64932;SDS011;51446;53.850;10.662;2023-07-29T13:54:33;5.20;;;1.90;;
64932;SDS011;51446;53.850;10.662;2023-07-29T13:56:59;4.15;;;2.10;;
64932;SDS011;51446;53.850;10.662;2023-07-29T13:59:24;2.50;;;2.00;;
64932;SDS011;51446;53.850;10.662;2023-07-29T14:01:49;3.27;;;1.80;;
64932;SDS011;51446;53.850;10.662;2023-07-29T14:04:14;2.90;;;1.90;;
64932;SDS011;51446;53.850;10.662;2023-07-29T14:06:40;2.77;;;1.93;;
64932;SDS011;51446;53.850;10.662;2023-07-29T14:09:06;1.90;;;1.63;;
64932;SDS011;51446;53.850;10.662;2023-07-29T14:11:31;2.23;;;1.80;;
64932;SDS011;51446;53.850;10.662;2023-07-29T14:13:56;1.80;;;1.60;;
64932;SDS011;51446;53.850;10.662;2023-07-29T14:16:22;2.53;;;1.73;;
64932;SDS011;51446;53.850;10.662;2023-07-29T14:18:47;1.80;;;1.40;;
64932;SDS011;51446;53.850;10.662;2023-07-29T14:21:12;2.40;;;1.63;;
64932;SDS011;51446;53.850;10.662;2023-07-29T14:23:37;4.47;;;4.07;;
64932;SDS011;51446;53.850;10.662;2023-07-29T14:26:03;3.77;;;2.60;;
64932;SDS011;51446;53.850;10.662;2023-07-29T14:28:28;2.00;;;1.50;;